createdAt,value
2022-09-16T00:01:21.070Z,12.20
2022-09-16T00:04:04.051Z,12.30
2022-09-16T00:06:34.468Z,12.30
2022-09-16T00:09:01.657Z,12.30
2022-09-16T00:11:34.055Z,12.30
2022-09-16T00:14:04.420Z,12.30
2022-09-16T00:16:31.679Z,12.30
2022-09-16T00:19:00.879Z,12.30
2022-09-16T00:21:31.666Z,12.40
2022-09-16T00:23:58.872Z,12.30
2022-09-16T00:26:26.492Z,12.30
2022-09-16T00:29:05.865Z,12.20
2022-09-16T00:31:32.874Z,12.20
2022-09-16T00:34:01.707Z,12.20
2022-09-16T00:36:32.013Z,12.20
2022-09-16T00:39:07.057Z,12.20
2022-09-16T00:41:34.441Z,12.10
2022-09-16T00:44:07.565Z,12.10
2022-09-16T00:46:47.761Z,12.20
2022-09-16T00:49:21.102Z,12.20
2022-09-16T00:51:51.642Z,12.10
2022-09-16T00:54:20.161Z,12.20
2022-09-16T00:56:55.462Z,12.10
2022-09-16T00:59:30.170Z,12.10
2022-09-16T01:02:00.554Z,12.10
2022-09-16T01:04:37.855Z,12.10
2022-09-16T01:07:05.047Z,12.10
2022-09-16T01:09:32.125Z,12.10
2022-09-16T01:11:59.154Z,12.10
2022-09-16T01:14:46.469Z,12.10
2022-09-16T01:17:28.308Z,12.10
2022-09-16T01:20:21.302Z,12.10
2022-09-16T01:22:57.443Z,12.10
2022-09-16T01:25:30.371Z,12.10
2022-09-16T01:28:26.180Z,12.10
2022-09-16T01:31:21.751Z,12.00
2022-09-16T01:34:07.643Z,11.90
2022-09-16T01:36:53.467Z,11.90
2022-09-16T01:39:53.637Z,11.90
2022-09-16T01:42:47.853Z,11.80
2022-09-16T01:45:26.987Z,11.80
2022-09-16T01:48:25.569Z,11.90
2022-09-16T01:51:08.377Z,11.90
2022-09-16T01:53:48.499Z,11.90
2022-09-16T01:56:47.419Z,12.00
2022-09-16T01:59:29.523Z,12.00
2022-09-16T02:02:29.539Z,12.00
2022-09-16T02:05:00.142Z,12.10
2022-09-16T02:07:39.249Z,12.10
2022-09-16T02:10:15.186Z,12.10
2022-09-16T02:12:45.520Z,12.10
2022-09-16T02:15:22.153Z,12.10
2022-09-16T02:18:12.922Z,12.10
2022-09-16T02:20:47.168Z,12.10
2022-09-16T02:23:31.380Z,12.00
2022-09-16T02:26:01.605Z,12.00
2022-09-16T02:28:42.373Z,11.90
2022-09-16T02:31:12.069Z,11.90
2022-09-16T02:36:34.471Z,11.90
2022-09-16T02:39:14.457Z,11.80
2022-09-16T02:41:41.799Z,11.90
2022-09-16T02:44:10.485Z,11.90
2022-09-16T02:46:58.253Z,11.90
2022-09-16T02:49:47.258Z,11.90
2022-09-16T02:52:40.587Z,11.90
2022-09-16T02:55:32.637Z,11.90
2022-09-16T02:58:00.158Z,11.80
2022-09-16T03:00:32.745Z,11.80
2022-09-16T03:02:59.784Z,11.80
2022-09-16T03:05:30.299Z,11.80
2022-09-16T03:08:07.434Z,11.80
2022-09-16T03:10:43.888Z,11.80
2022-09-16T03:13:22.969Z,11.90
2022-09-16T03:15:58.821Z,11.90
2022-09-16T03:19:10.180Z,11.80
2022-09-16T03:22:01.789Z,11.80
2022-09-16T03:24:50.452Z,11.70
2022-09-16T03:27:29.462Z,11.60
2022-09-16T03:30:05.135Z,11.60
2022-09-16T03:32:58.403Z,11.50
2022-09-16T03:35:37.195Z,11.50
2022-09-16T03:38:06.414Z,11.40
2022-09-16T03:40:34.457Z,11.40
2022-09-16T03:43:09.846Z,11.40
2022-09-16T03:45:36.843Z,11.40
2022-09-16T03:48:04.011Z,11.40
2022-09-16T03:50:31.069Z,11.40
2022-09-16T03:53:03.835Z,11.50
2022-09-16T03:55:31.120Z,11.50
2022-09-16T03:57:58.142Z,11.50
2022-09-16T04:00:25.281Z,11.50
2022-09-16T04:02:52.272Z,11.50
2022-09-16T04:05:19.269Z,11.50
2022-09-16T04:07:48.652Z,11.40
2022-09-16T04:10:15.918Z,11.40
2022-09-16T04:12:42.820Z,11.30
2022-09-16T04:15:10.681Z,11.30
2022-09-16T04:17:38.155Z,11.30
2022-09-16T04:20:07.933Z,11.30
2022-09-16T04:22:38.155Z,11.20
2022-09-16T04:25:05.698Z,11.20
2022-09-16T04:27:32.658Z,11.20
2022-09-16T04:30:02.440Z,11.10
2022-09-16T04:32:29.373Z,11.10
2022-09-16T04:34:56.236Z,11.00
2022-09-16T04:37:23.177Z,11.00
2022-09-16T04:39:50.243Z,11.00
2022-09-16T04:42:17.283Z,11.00
2022-09-16T04:44:44.846Z,11.00
2022-09-16T04:47:11.905Z,11.00
2022-09-16T04:49:38.867Z,11.00
2022-09-16T04:52:05.881Z,11.10
2022-09-16T04:54:33.087Z,11.10
2022-09-16T04:57:01.652Z,11.10
2022-09-16T04:59:28.572Z,11.20
2022-09-16T05:01:55.693Z,11.20
2022-09-16T05:04:24.708Z,11.20
2022-09-16T05:06:51.892Z,11.20
2022-09-16T05:09:19.081Z,11.20
2022-09-16T05:11:46.093Z,11.20
2022-09-16T05:14:18.270Z,11.20
2022-09-16T05:16:46.079Z,11.10
2022-09-16T05:19:14.277Z,11.10
2022-09-16T05:21:42.077Z,11.10
2022-09-16T05:24:11.404Z,11.00
2022-09-16T05:26:42.116Z,11.00
2022-09-16T05:29:13.507Z,11.00
2022-09-16T07:45:08.667Z,13.50
2022-09-16T07:47:35.973Z,13.60
2022-09-16T07:50:03.073Z,13.80
2022-09-16T07:52:30.427Z,14.10
2022-09-16T07:54:58.144Z,14.30
2022-09-16T07:57:25.384Z,14.50
2022-09-16T07:59:54.982Z,14.50
2022-09-16T08:02:22.213Z,14.60
2022-09-16T08:04:49.262Z,14.50
2022-09-16T08:07:16.775Z,14.50
2022-09-16T08:09:50.970Z,14.30
2022-09-16T08:12:20.278Z,14.30
2022-09-16T08:14:47.282Z,14.30
2022-09-16T08:17:14.407Z,14.30
2022-09-16T08:19:44.536Z,14.30
2022-09-16T08:22:11.649Z,14.30
2022-09-16T08:24:39.020Z,14.30
2022-09-16T08:27:06.341Z,14.40
2022-09-16T08:29:33.498Z,14.50
2022-09-16T08:32:00.613Z,14.50
2022-09-16T08:34:27.544Z,14.60
2022-09-16T08:36:54.434Z,14.70
2022-09-16T08:39:21.765Z,14.70
2022-09-16T08:42:09.034Z,14.80
2022-09-16T08:44:57.713Z,14.90
2022-09-16T08:47:42.879Z,15.00
2022-09-16T08:50:18.221Z,15.10
2022-09-16T08:52:45.856Z,15.20
2022-09-16T08:55:23.682Z,15.30
2022-09-16T08:58:24.933Z,15.30
2022-09-16T09:01:02.772Z,15.40
2022-09-16T09:03:47.863Z,15.50
2022-09-16T09:06:21.439Z,15.90
2022-09-16T09:08:56.759Z,16.10
2022-09-16T09:11:42.009Z,16.10
2022-09-16T09:14:24.922Z,15.90
2022-09-16T09:17:02.365Z,15.70
2022-09-16T09:19:38.579Z,15.60
2022-09-16T09:22:31.269Z,15.70
2022-09-16T09:25:22.839Z,15.90
2022-09-16T09:27:58.229Z,16.10
2022-09-16T09:30:27.288Z,16.20
2022-09-16T09:33:28.028Z,16.20
2022-09-16T09:36:28.266Z,16.30
2022-09-16T09:39:28.721Z,16.60
2022-09-16T09:42:27.841Z,17.30
2022-09-16T09:45:18.875Z,17.90
2022-09-16T09:47:57.385Z,18.60
2022-09-16T09:50:30.728Z,19.20
2022-09-16T09:53:28.790Z,19.60
2022-09-16T09:56:18.763Z,19.10
2022-09-16T09:59:08.828Z,19.10
2022-09-16T10:01:42.348Z,19.50
2022-09-16T10:04:18.393Z,19.60
2022-09-16T10:06:46.315Z,19.60
2022-09-16T10:09:18.468Z,19.30
2022-09-16T10:14:46.933Z,18.30
2022-09-16T10:17:17.841Z,17.70
2022-09-16T10:20:40.499Z,17.40
2022-09-16T10:23:16.165Z,17.70
2022-09-16T10:25:43.974Z,18.60
2022-09-16T10:28:25.383Z,18.80
2022-09-16T10:30:58.237Z,18.50
2022-09-16T10:33:36.964Z,18.30
2022-09-16T10:36:08.496Z,17.90
2022-09-16T10:38:51.551Z,17.20
2022-09-16T10:41:33.339Z,16.60
2022-09-16T10:44:03.903Z,16.60
2022-09-16T10:46:34.899Z,17.70
2022-09-16T10:49:10.712Z,18.90
2022-09-16T10:51:43.176Z,20.00
2022-09-16T10:54:34.745Z,20.80
2022-09-16T10:57:01.649Z,21.50
2022-09-16T10:59:28.568Z,21.90
2022-09-16T11:02:33.375Z,22.20
2022-09-16T11:05:41.366Z,22.70
2022-09-16T11:08:08.226Z,22.90
2022-09-16T11:10:45.372Z,22.70
2022-09-16T11:13:21.305Z,22.60
2022-09-16T11:16:20.467Z,22.60
2022-09-16T11:19:22.525Z,21.90
2022-09-16T11:22:29.025Z,21.00
2022-09-16T11:25:29.715Z,20.40
2022-09-16T11:28:27.134Z,20.70
2022-09-16T11:31:13.219Z,21.00
2022-09-16T11:33:47.696Z,21.10
2022-09-16T11:36:41.215Z,21.60
2022-09-16T11:39:28.010Z,21.90
2022-09-16T11:42:11.844Z,22.20
2022-09-16T11:45:16.356Z,22.60
2022-09-16T11:48:11.258Z,22.60
2022-09-16T11:50:48.247Z,22.70
2022-09-16T11:53:49.759Z,22.50
2022-09-16T11:56:54.376Z,22.60
2022-09-16T11:59:24.669Z,23.00
2022-09-16T12:02:03.386Z,23.00
2022-09-16T12:04:46.685Z,22.80
2022-09-16T12:07:24.803Z,21.70
2022-09-16T12:10:17.037Z,20.90
2022-09-16T12:12:57.260Z,20.30
2022-09-16T12:15:40.332Z,19.90
2022-09-16T12:18:26.807Z,19.90
2022-09-16T12:21:08.526Z,19.80
2022-09-16T12:23:42.678Z,19.80
2022-09-16T12:26:21.037Z,19.80
2022-09-16T12:29:11.740Z,20.10
2022-09-16T12:31:53.882Z,20.40
2022-09-16T12:34:28.520Z,20.70
2022-09-16T12:37:25.215Z,20.50
2022-09-16T12:39:55.883Z,20.50
2022-09-16T12:42:59.198Z,20.40
2022-09-16T12:45:44.369Z,20.40
2022-09-16T12:48:43.298Z,20.00
2022-09-16T12:51:13.229Z,19.50
2022-09-16T12:54:02.701Z,18.90
2022-09-16T12:56:43.311Z,18.60
2022-09-16T12:59:16.359Z,18.50
2022-09-16T13:01:48.471Z,18.40
2022-09-16T13:04:23.376Z,18.30
2022-09-16T13:06:53.660Z,18.40
2022-09-16T13:09:25.055Z,18.50
2022-09-16T13:14:56.452Z,18.70
2022-09-16T13:17:35.880Z,18.70
2022-09-16T13:20:41.099Z,18.80
2022-09-16T13:23:20.934Z,18.40
2022-09-16T13:26:07.655Z,17.60
2022-09-16T13:28:37.214Z,17.00
2022-09-16T13:31:17.670Z,16.40
2022-09-16T13:33:49.067Z,16.00
2022-09-16T13:36:25.422Z,15.70
2022-09-16T13:38:58.072Z,15.40
2022-09-16T13:41:42.962Z,15.10
2022-09-16T13:44:38.518Z,14.90
2022-09-16T13:47:12.485Z,14.80
2022-09-16T13:50:00.754Z,14.60
2022-09-16T13:52:31.542Z,14.50
2022-09-16T13:55:22.439Z,14.50
2022-09-16T13:57:55.281Z,14.50
2022-09-16T14:00:32.380Z,14.60
2022-09-16T14:03:40.411Z,14.80
2022-09-16T14:06:15.509Z,15.00
2022-09-16T14:09:14.489Z,15.60
2022-09-16T14:12:03.988Z,15.90
2022-09-16T14:14:50.368Z,15.90
2022-09-16T14:17:25.729Z,16.00
2022-09-16T14:20:01.881Z,15.90
2022-09-16T14:22:30.181Z,15.90
2022-09-16T14:25:06.255Z,16.00
2022-09-16T14:27:40.191Z,16.10
2022-09-16T14:30:15.153Z,16.00
2022-09-16T14:32:42.360Z,15.90
2022-09-16T14:35:12.245Z,15.80
2022-09-16T14:37:40.393Z,15.70
2022-09-16T14:40:14.880Z,15.70
2022-09-16T14:42:55.356Z,15.70
2022-09-16T14:45:23.356Z,15.70
2022-09-16T14:47:53.263Z,15.70
2022-09-16T14:50:33.433Z,15.50
2022-09-16T14:53:03.301Z,15.30
2022-09-16T14:55:33.597Z,15.10
2022-09-16T14:58:00.761Z,14.90
2022-09-16T15:00:43.110Z,14.80
2022-09-16T15:03:18.102Z,14.70
2022-09-16T15:05:47.196Z,14.60
2022-09-16T15:08:26.089Z,14.50
2022-09-16T15:10:58.186Z,14.50
2022-09-16T15:13:38.049Z,14.40
2022-09-16T15:16:12.188Z,14.40
2022-09-16T15:18:52.673Z,14.60
2022-09-16T15:21:21.309Z,14.70
2022-09-16T15:23:54.739Z,14.80
2022-09-16T15:26:29.821Z,14.70
2022-09-16T15:29:00.744Z,14.70
2022-09-16T15:31:40.598Z,14.80
2022-09-16T15:34:23.028Z,14.90
2022-09-16T15:36:50.949Z,14.90
2022-09-16T15:39:38.598Z,14.90
2022-09-16T15:42:19.061Z,15.10
2022-09-16T15:44:57.412Z,15.40
2022-09-16T15:47:34.431Z,15.30
2022-09-16T16:12:32.464Z,13.90
2022-09-16T16:14:59.376Z,13.90
2022-09-16T16:17:26.517Z,13.80
2022-09-16T16:20:12.387Z,13.80
2022-09-16T16:22:40.603Z,13.70
2022-09-16T16:25:08.205Z,13.70
2022-09-16T16:27:35.259Z,13.70
2022-09-16T16:30:02.179Z,13.70
2022-09-16T16:32:43.576Z,13.70
2022-09-16T16:35:14.298Z,13.80
2022-09-16T16:37:46.431Z,13.80
2022-09-16T16:40:14.993Z,13.80
2022-09-16T16:42:43.879Z,13.80
2022-09-16T16:45:14.831Z,13.80
2022-09-16T16:47:44.351Z,13.80
2022-09-16T16:50:11.338Z,13.80
2022-09-16T16:52:38.641Z,13.80
2022-09-16T16:55:06.789Z,13.80
2022-09-16T16:57:33.671Z,13.80
2022-09-16T17:00:00.821Z,13.70
2022-09-16T17:02:27.809Z,13.70
2022-09-16T17:04:54.748Z,13.60
2022-09-16T17:07:26.352Z,13.50
2022-09-16T17:09:54.691Z,13.50
2022-09-16T17:12:21.929Z,13.40
2022-09-16T17:14:48.854Z,13.40
2022-09-16T17:17:15.805Z,13.40
2022-09-16T17:19:42.908Z,13.40
2022-09-16T17:22:09.877Z,13.30
2022-09-16T17:24:36.691Z,13.20
2022-09-16T17:27:04.329Z,13.20
2022-09-16T17:29:31.491Z,13.20
2022-09-16T17:32:00.751Z,13.20
2022-09-16T17:34:27.773Z,13.20
2022-09-16T17:36:54.762Z,13.20
2022-09-16T17:39:22.333Z,13.20
2022-09-16T17:41:51.057Z,13.20
2022-09-16T17:44:19.963Z,13.20
2022-09-16T17:46:47.269Z,13.20
2022-09-16T17:49:25.593Z,13.20
2022-09-16T17:51:53.567Z,13.20
2022-09-16T17:54:21.638Z,13.20
2022-09-16T17:56:48.784Z,13.20
2022-09-16T17:59:17.905Z,13.30
2022-09-16T18:01:45.228Z,13.20
2022-09-16T18:04:12.847Z,13.20
2022-09-16T18:06:43.080Z,13.10
2022-09-16T18:09:11.237Z,13.10
2022-09-16T18:11:39.878Z,13.20
2022-09-16T18:14:10.295Z,13.20
2022-09-16T18:16:37.315Z,13.20
2022-09-16T18:19:05.133Z,13.20
2022-09-16T18:21:32.848Z,13.20
2022-09-16T18:24:02.643Z,13.10
2022-09-16T18:26:31.219Z,13.10
2022-09-16T18:29:16.159Z,13.20
2022-09-16T18:31:47.953Z,13.10
2022-09-16T18:34:16.218Z,13.10
2022-09-16T18:36:46.439Z,13.10
2022-09-16T18:39:15.543Z,13.00
2022-09-16T18:41:44.941Z,13.00
2022-09-16T18:44:25.463Z,12.90
2022-09-16T18:46:53.610Z,12.90
2022-09-16T18:49:22.219Z,12.90
2022-09-16T18:51:52.150Z,12.90
2022-09-16T18:54:27.999Z,12.90
2022-09-16T18:56:56.866Z,12.90
2022-09-16T18:59:27.690Z,12.90
2022-09-16T19:01:57.527Z,12.90
2022-09-16T19:04:28.183Z,12.90
2022-09-16T19:06:59.308Z,12.90
2022-09-16T19:09:27.122Z,12.90
2022-09-16T19:12:00.814Z,13.00
2022-09-16T19:14:28.307Z,13.00
2022-09-16T19:16:55.661Z,13.00
2022-09-16T19:19:22.872Z,13.10
2022-09-16T19:21:50.168Z,13.10
2022-09-16T19:24:20.105Z,13.10
2022-09-16T19:26:48.694Z,13.10
2022-09-16T19:29:16.451Z,13.20
2022-09-16T19:31:52.949Z,13.20
2022-09-16T19:34:20.811Z,13.20
2022-09-16T19:36:47.697Z,13.20
2022-09-16T19:39:14.770Z,13.20
2022-09-16T19:41:45.698Z,13.20
2022-09-16T19:44:17.207Z,13.20
2022-09-16T19:46:47.194Z,13.20
2022-09-16T19:49:21.719Z,13.20
2022-09-16T19:51:52.640Z,13.20
2022-09-16T19:54:24.156Z,13.10
2022-09-16T19:56:57.166Z,13.10
2022-09-16T19:59:30.054Z,13.10
2022-09-16T20:01:58.392Z,13.10
2022-09-16T20:04:25.539Z,13.10
2022-09-16T20:06:52.501Z,13.10
2022-09-16T20:09:19.960Z,13.10
2022-09-16T20:11:53.199Z,13.10
2022-09-16T20:14:37.287Z,13.10
2022-09-16T20:17:07.893Z,13.10
2022-09-16T20:19:40.015Z,13.10
2022-09-16T20:22:06.935Z,13.10
2022-09-16T20:24:37.426Z,13.10
2022-09-16T20:27:04.917Z,13.10
2022-09-16T20:29:34.467Z,13.10
2022-09-16T20:32:01.573Z,13.10
2022-09-16T20:34:28.850Z,13.10
2022-09-16T20:36:58.788Z,13.10
2022-09-16T20:39:26.187Z,13.10
2022-09-16T20:41:53.291Z,13.10
2022-09-16T20:44:20.693Z,13.10
2022-09-16T20:46:50.321Z,13.10
2022-09-16T20:49:22.862Z,13.10
2022-09-16T20:51:49.946Z,13.00
2022-09-16T20:54:17.259Z,13.00
2022-09-16T20:56:49.629Z,13.00
2022-09-16T20:59:21.528Z,13.00
2022-09-16T21:01:52.436Z,13.00
2022-09-16T21:04:20.875Z,13.00
2022-09-16T21:06:48.465Z,13.00
2022-09-16T21:09:17.005Z,13.00
2022-09-16T21:11:48.364Z,13.00
2022-09-16T21:14:16.728Z,13.10
2022-09-16T21:16:45.451Z,13.10
2022-09-16T21:19:13.489Z,13.10
2022-09-16T21:21:44.439Z,13.10
2022-09-16T21:24:12.048Z,13.10
2022-09-16T21:26:41.005Z,13.00
2022-09-16T21:29:26.073Z,13.00
2022-09-16T21:31:56.437Z,13.00
2022-09-16T21:34:23.803Z,13.00
2022-09-16T21:36:58.854Z,13.00
2022-09-16T21:39:25.815Z,13.00
2022-09-16T21:41:52.684Z,13.00
2022-09-16T21:44:20.032Z,13.00
2022-09-16T21:46:47.577Z,13.00
2022-09-16T21:49:22.283Z,13.00
2022-09-16T21:51:59.170Z,13.00
2022-09-16T21:54:32.619Z,13.00
2022-09-16T21:57:05.315Z,13.00
2022-09-16T21:59:32.626Z,13.00
